sensor_id;sensor_type;location;lat;lon;timestamp;P1;durP1;ratioP1;P2;durP2;ratioP2
35576;SDS011;21680;52.400;16.920;2023-06-22T00:00:58;13.70;;;10.80;;
35576;SDS011;21680;52.400;16.920;2023-06-22T00:03:24;13.80;;;11.10;;
35576;SDS011;21680;52.400;16.920;2023-06-22T00:05:50;16.00;;;11.40;;
35576;SDS011;21680;52.400;16.920;2023-06-22T00:08:17;16.00;;;10.60;;
35576;SDS011;21680;52.400;16.920;2023-06-22T00:10:43;15.40;;;11.80;;
35576;SDS011;21680;52.400;16.920;2023-06-22T00:13:09;14.90;;;11.00;;
35576;SDS011;21680;52.400;16.920;2023-06-22T00:15:35;17.10;;;11.10;;
35576;SDS011;21680;52.400;16.920;2023-06-22T00:18:02;14.50;;;11.20;;
35576;SDS011;21680;52.400;16.920;2023-06-22T00:20:27;12.00;;;10.30;;
35576;SDS011;21680;52.400;16.920;2023-06-22T00:22:54;15.00;;;11.90;;
35576;SDS011;21680;52.400;16.920;2023-06-22T00:25:20;15.50;;;11.40;;
35576;SDS011;21680;52.400;16.920;2023-06-22T00:27:46;15.40;;;11.50;;
35576;SDS011;21680;52.400;16.920;2023-06-22T00:30:11;16.30;;;11.70;;
35576;SDS011;21680;52.400;16.920;2023-06-22T00:32:36;18.00;;;11.20;;
35576;SDS011;21680;52.400;16.920;2023-06-22T00:35:02;16.50;;;11.80;;
35576;SDS011;21680;52.400;16.920;2023-06-22T00:37:27;17.10;;;12.60;;
35576;SDS011;21680;52.400;16.920;2023-06-22T00:39:54;17.80;;;11.30;;
35576;SDS011;21680;52.400;16.920;2023-06-22T00:42:20;17.80;;;12.30;;
35576;SDS011;21680;52.400;16.920;2023-06-22T00:44:46;16.70;;;11.40;;
35576;SDS011;21680;52.400;16.920;2023-06-22T00:47:12;12.40;;;10.40;;
35576;SDS011;21680;52.400;16.920;2023-06-22T00:49:40;16.60;;;11.90;;
35576;SDS011;21680;52.400;16.920;2023-06-22T00:52:06;14.80;;;11.70;;
35576;SDS011;21680;52.400;16.920;2023-06-22T00:54:42;13.80;;;11.00;;
35576;SDS011;21680;52.400;16.920;2023-06-22T00:57:11;14.70;;;10.80;;
35576;SDS011;21680;52.400;16.920;2023-06-22T00:59:44;14.20;;;12.00;;
35576;SDS011;21680;52.400;16.920;2023-06-22T01:02:10;16.40;;;11.50;;
35576;SDS011;21680;52.400;16.920;2023-06-22T01:04:37;15.20;;;11.90;;
35576;SDS011;21680;52.400;16.920;2023-06-22T01:12:38;20.90;;;12.80;;
35576;SDS011;21680;52.400;16.920;2023-06-22T01:15:10;15.50;;;13.20;;
35576;SDS011;21680;52.400;16.920;2023-06-22T01:17:40;20.60;;;13.70;;
35576;SDS011;21680;52.400;16.920;2023-06-22T01:20:08;16.10;;;14.30;;
35576;SDS011;21680;52.400;16.920;2023-06-22T01:22:40;17.90;;;14.20;;
35576;SDS011;21680;52.400;16.920;2023-06-22T01:25:31;21.70;;;15.50;;
35576;SDS011;21680;52.400;16.920;2023-06-22T01:30:58;22.80;;;14.60;;
35576;SDS011;21680;52.400;16.920;2023-06-22T01:33:34;20.30;;;15.70;;
35576;SDS011;21680;52.400;16.920;2023-06-22T01:36:02;23.10;;;16.30;;
35576;SDS011;21680;52.400;16.920;2023-06-22T01:38:29;24.70;;;16.70;;
35576;SDS011;21680;52.400;16.920;2023-06-22T01:40:57;21.00;;;16.60;;
35576;SDS011;21680;52.400;16.920;2023-06-22T01:43:24;20.90;;;16.50;;
35576;SDS011;21680;52.400;16.920;2023-06-22T01:45:51;25.20;;;17.20;;
35576;SDS011;21680;52.400;16.920;2023-06-22T01:48:17;19.40;;;15.30;;
35576;SDS011;21680;52.400;16.920;2023-06-22T01:50:44;21.20;;;15.60;;
35576;SDS011;21680;52.400;16.920;2023-06-22T01:53:10;19.00;;;14.40;;
35576;SDS011;21680;52.400;16.920;2023-06-22T01:55:35;19.40;;;15.10;;
35576;SDS011;21680;52.400;16.920;2023-06-22T01:58:00;18.20;;;14.90;;
35576;SDS011;21680;52.400;16.920;2023-06-22T02:00:26;19.70;;;14.80;;
35576;SDS011;21680;52.400;16.920;2023-06-22T02:02:59;18.50;;;13.80;;
35576;SDS011;21680;52.400;16.920;2023-06-22T02:05:29;21.10;;;14.70;;
35576;SDS011;21680;52.400;16.920;2023-06-22T02:08:05;16.60;;;13.60;;
35576;SDS011;21680;52.400;16.920;2023-06-22T02:10:35;23.20;;;15.30;;
35576;SDS011;21680;52.400;16.920;2023-06-22T02:13:03;24.60;;;14.60;;
35576;SDS011;21680;52.400;16.920;2023-06-22T02:15:31;20.90;;;15.60;;
35576;SDS011;21680;52.400;16.920;2023-06-22T02:17:57;23.30;;;16.40;;
35576;SDS011;21680;52.400;16.920;2023-06-22T02:20:23;19.40;;;14.40;;
35576;SDS011;21680;52.400;16.920;2023-06-22T02:22:49;18.70;;;14.00;;
35576;SDS011;21680;52.400;16.920;2023-06-22T02:25:14;19.70;;;12.90;;
35576;SDS011;21680;52.400;16.920;2023-06-22T02:27:39;15.40;;;10.70;;
35576;SDS011;21680;52.400;16.920;2023-06-22T02:30:07;17.50;;;11.80;;
35576;SDS011;21680;52.400;16.920;2023-06-22T02:32:34;14.70;;;10.80;;
35576;SDS011;21680;52.400;16.920;2023-06-22T02:34:59;13.70;;;9.20;;
35576;SDS011;21680;52.400;16.920;2023-06-22T02:37:24;14.10;;;9.10;;
35576;SDS011;21680;52.400;16.920;2023-06-22T02:39:50;10.60;;;8.10;;
35576;SDS011;21680;52.400;16.920;2023-06-22T02:42:15;13.30;;;9.00;;
35576;SDS011;21680;52.400;16.920;2023-06-22T02:44:45;13.50;;;9.40;;
35576;SDS011;21680;52.400;16.920;2023-06-22T02:47:10;11.40;;;9.00;;
35576;SDS011;21680;52.400;16.920;2023-06-22T02:49:35;11.80;;;8.20;;
35576;SDS011;21680;52.400;16.920;2023-06-22T02:52:01;11.20;;;8.30;;
35576;SDS011;21680;52.400;16.920;2023-06-22T02:54:26;13.10;;;7.90;;
35576;SDS011;21680;52.400;16.920;2023-06-22T02:56:51;11.70;;;8.40;;
35576;SDS011;21680;52.400;16.920;2023-06-22T02:59:16;12.50;;;9.30;;
35576;SDS011;21680;52.400;16.920;2023-06-22T03:01:42;13.60;;;8.20;;
35576;SDS011;21680;52.400;16.920;2023-06-22T03:04:07;17.30;;;8.30;;
35576;SDS011;21680;52.400;16.920;2023-06-22T03:06:34;11.00;;;7.50;;
35576;SDS011;21680;52.400;16.920;2023-06-22T03:09:00;11.30;;;7.30;;
35576;SDS011;21680;52.400;16.920;2023-06-22T03:11:27;10.00;;;7.30;;
35576;SDS011;21680;52.400;16.920;2023-06-22T03:13:52;10.00;;;8.20;;
35576;SDS011;21680;52.400;16.920;2023-06-22T03:16:18;8.70;;;7.60;;
35576;SDS011;21680;52.400;16.920;2023-06-22T03:18:44;8.20;;;6.90;;
35576;SDS011;21680;52.400;16.920;2023-06-22T03:21:10;10.30;;;6.80;;
35576;SDS011;21680;52.400;16.920;2023-06-22T03:23:35;11.50;;;7.70;;
35576;SDS011;21680;52.400;16.920;2023-06-22T03:26:01;10.90;;;7.20;;
35576;SDS011;21680;52.400;16.920;2023-06-22T03:28:26;9.30;;;6.70;;
35576;SDS011;21680;52.400;16.920;2023-06-22T03:30:51;9.70;;;6.50;;
35576;SDS011;21680;52.400;16.920;2023-06-22T03:33:17;9.10;;;7.50;;
35576;SDS011;21680;52.400;16.920;2023-06-22T03:35:42;10.50;;;7.10;;
35576;SDS011;21680;52.400;16.920;2023-06-22T03:38:07;13.80;;;7.50;;
35576;SDS011;21680;52.400;16.920;2023-06-22T03:40:33;7.80;;;6.70;;
35576;SDS011;21680;52.400;16.920;2023-06-22T03:42:58;10.20;;;7.00;;
35576;SDS011;21680;52.400;16.920;2023-06-22T03:45:23;10.30;;;6.70;;
35576;SDS011;21680;52.400;16.920;2023-06-22T03:47:48;8.50;;;6.80;;
35576;SDS011;21680;52.400;16.920;2023-06-22T03:50:13;10.30;;;7.00;;
35576;SDS011;21680;52.400;16.920;2023-06-22T03:52:39;7.80;;;6.10;;
35576;SDS011;21680;52.400;16.920;2023-06-22T03:55:05;11.60;;;6.40;;
35576;SDS011;21680;52.400;16.920;2023-06-22T03:57:32;13.10;;;6.80;;
35576;SDS011;21680;52.400;16.920;2023-06-22T03:59:57;8.50;;;6.50;;
35576;SDS011;21680;52.400;16.920;2023-06-22T04:02:23;9.40;;;6.40;;
35576;SDS011;21680;52.400;16.920;2023-06-22T04:04:48;8.20;;;5.70;;
35576;SDS011;21680;52.400;16.920;2023-06-22T04:07:14;7.50;;;5.90;;
35576;SDS011;21680;52.400;16.920;2023-06-22T04:09:39;9.80;;;6.30;;
35576;SDS011;21680;52.400;16.920;2023-06-22T04:12:04;12.50;;;6.70;;
35576;SDS011;21680;52.400;16.920;2023-06-22T04:14:30;10.00;;;5.80;;
35576;SDS011;21680;52.400;16.920;2023-06-22T04:16:55;9.20;;;5.60;;
35576;SDS011;21680;52.400;16.920;2023-06-22T04:19:20;16.00;;;6.30;;
35576;SDS011;21680;52.400;16.920;2023-06-22T04:21:46;12.50;;;6.50;;
35576;SDS011;21680;52.400;16.920;2023-06-22T04:24:13;14.00;;;5.90;;
35576;SDS011;21680;52.400;16.920;2023-06-22T04:26:39;9.50;;;5.80;;
35576;SDS011;21680;52.400;16.920;2023-06-22T04:29:06;9.20;;;4.90;;
35576;SDS011;21680;52.400;16.920;2023-06-22T04:31:33;7.60;;;5.20;;
35576;SDS011;21680;52.400;16.920;2023-06-22T04:34:01;7.70;;;5.50;;
35576;SDS011;21680;52.400;16.920;2023-06-22T04:36:35;7.60;;;4.50;;
35576;SDS011;21680;52.400;16.920;2023-06-22T04:39:05;5.50;;;4.10;;
35576;SDS011;21680;52.400;16.920;2023-06-22T04:41:39;11.70;;;4.90;;
35576;SDS011;21680;52.400;16.920;2023-06-22T04:44:08;9.80;;;4.50;;
35576;SDS011;21680;52.400;16.920;2023-06-22T04:46:37;10.90;;;4.70;;
35576;SDS011;21680;52.400;16.920;2023-06-22T04:49:04;11.40;;;4.40;;
35576;SDS011;21680;52.400;16.920;2023-06-22T04:51:31;7.60;;;4.90;;
35576;SDS011;21680;52.400;16.920;2023-06-22T04:53:57;14.80;;;4.60;;
35576;SDS011;21680;52.400;16.920;2023-06-22T04:56:25;10.70;;;5.70;;
35576;SDS011;21680;52.400;16.920;2023-06-22T04:58:53;9.60;;;4.40;;
35576;SDS011;21680;52.400;16.920;2023-06-22T05:01:22;13.60;;;4.70;;
35576;SDS011;21680;52.400;16.920;2023-06-22T05:03:48;8.30;;;4.20;;
35576;SDS011;21680;52.400;16.920;2023-06-22T05:06:14;6.90;;;4.50;;
35576;SDS011;21680;52.400;16.920;2023-06-22T05:08:39;6.70;;;4.00;;
35576;SDS011;21680;52.400;16.920;2023-06-22T05:11:05;6.80;;;4.10;;
35576;SDS011;21680;52.400;16.920;2023-06-22T05:13:30;11.90;;;4.70;;
35576;SDS011;21680;52.400;16.920;2023-06-22T05:15:56;7.30;;;3.60;;
35576;SDS011;21680;52.400;16.920;2023-06-22T05:18:29;10.10;;;4.40;;
35576;SDS011;21680;52.400;16.920;2023-06-22T05:20:55;8.90;;;3.10;;
35576;SDS011;21680;52.400;16.920;2023-06-22T05:23:21;8.20;;;3.30;;
35576;SDS011;21680;52.400;16.920;2023-06-22T05:25:46;9.80;;;3.40;;
35576;SDS011;21680;52.400;16.920;2023-06-22T05:28:11;11.70;;;3.40;;
35576;SDS011;21680;52.400;16.920;2023-06-22T05:30:37;12.90;;;4.30;;
35576;SDS011;21680;52.400;16.920;2023-06-22T05:33:03;4.60;;;3.00;;
35576;SDS011;21680;52.400;16.920;2023-06-22T05:35:28;7.20;;;3.00;;
35576;SDS011;21680;52.400;16.920;2023-06-22T05:37:54;7.50;;;2.90;;
35576;SDS011;21680;52.400;16.920;2023-06-22T05:40:20;10.20;;;3.30;;
35576;SDS011;21680;52.400;16.920;2023-06-22T05:42:45;10.30;;;2.50;;
35576;SDS011;21680;52.400;16.920;2023-06-22T05:45:10;9.30;;;2.60;;
35576;SDS011;21680;52.400;16.920;2023-06-22T05:47:35;6.70;;;2.60;;
35576;SDS011;21680;52.400;16.920;2023-06-22T05:50:01;5.80;;;2.60;;
35576;SDS011;21680;52.400;16.920;2023-06-22T05:52:26;5.30;;;2.80;;
35576;SDS011;21680;52.400;16.920;2023-06-22T05:54:51;7.70;;;3.50;;
35576;SDS011;21680;52.400;16.920;2023-06-22T05:57:16;7.60;;;2.60;;
35576;SDS011;21680;52.400;16.920;2023-06-22T05:59:42;8.40;;;2.80;;
35576;SDS011;21680;52.400;16.920;2023-06-22T06:02:07;5.30;;;3.20;;
35576;SDS011;21680;52.400;16.920;2023-06-22T06:04:32;14.80;;;3.30;;
35576;SDS011;21680;52.400;16.920;2023-06-22T06:06:57;11.20;;;3.10;;
35576;SDS011;21680;52.400;16.920;2023-06-22T06:09:23;7.20;;;2.50;;
35576;SDS011;21680;52.400;16.920;2023-06-22T06:11:48;16.00;;;3.40;;
35576;SDS011;21680;52.400;16.920;2023-06-22T06:14:13;12.40;;;3.70;;
35576;SDS011;21680;52.400;16.920;2023-06-22T06:16:38;6.80;;;2.70;;
35576;SDS011;21680;52.400;16.920;2023-06-22T06:19:03;10.30;;;2.70;;
35576;SDS011;21680;52.400;16.920;2023-06-22T06:21:29;5.90;;;2.80;;
35576;SDS011;21680;52.400;16.920;2023-06-22T06:23:54;9.40;;;3.30;;
35576;SDS011;21680;52.400;16.920;2023-06-22T06:26:19;7.00;;;3.30;;
35576;SDS011;21680;52.400;16.920;2023-06-22T06:28:53;7.00;;;2.50;;
35576;SDS011;21680;52.400;16.920;2023-06-22T06:31:19;15.90;;;3.30;;
35576;SDS011;21680;52.400;16.920;2023-06-22T06:33:45;4.90;;;3.10;;
35576;SDS011;21680;52.400;16.920;2023-06-22T06:36:11;14.50;;;3.80;;
35576;SDS011;21680;52.400;16.920;2023-06-22T06:38:36;9.80;;;3.00;;
35576;SDS011;21680;52.400;16.920;2023-06-22T06:41:01;4.70;;;2.70;;
35576;SDS011;21680;52.400;16.920;2023-06-22T06:43:27;5.40;;;2.80;;
35576;SDS011;21680;52.400;16.920;2023-06-22T06:45:52;10.30;;;3.20;;
35576;SDS011;21680;52.400;16.920;2023-06-22T06:48:17;6.30;;;3.30;;
35576;SDS011;21680;52.400;16.920;2023-06-22T06:50:42;11.90;;;3.30;;
35576;SDS011;21680;52.400;16.920;2023-06-22T06:53:09;10.90;;;3.20;;
35576;SDS011;21680;52.400;16.920;2023-06-22T06:55:34;5.70;;;2.70;;
35576;SDS011;21680;52.400;16.920;2023-06-22T06:58:00;7.90;;;3.30;;
35576;SDS011;21680;52.400;16.920;2023-06-22T07:00:27;9.20;;;3.20;;
35576;SDS011;21680;52.400;16.920;2023-06-22T07:02:52;8.20;;;3.60;;
35576;SDS011;21680;52.400;16.920;2023-06-22T07:05:18;7.00;;;3.50;;
35576;SDS011;21680;52.400;16.920;2023-06-22T07:07:43;6.60;;;2.90;;
35576;SDS011;21680;52.400;16.920;2023-06-22T07:10:08;8.00;;;3.50;;
35576;SDS011;21680;52.400;16.920;2023-06-22T07:12:35;5.30;;;2.60;;
35576;SDS011;21680;52.400;16.920;2023-06-22T07:15:01;12.50;;;3.70;;
35576;SDS011;21680;52.400;16.920;2023-06-22T07:17:28;7.80;;;3.20;;
35576;SDS011;21680;52.400;16.920;2023-06-22T07:19:53;8.40;;;3.40;;
35576;SDS011;21680;52.400;16.920;2023-06-22T07:22:18;5.80;;;3.40;;
35576;SDS011;21680;52.400;16.920;2023-06-22T07:24:43;10.10;;;3.20;;
35576;SDS011;21680;52.400;16.920;2023-06-22T07:27:09;8.10;;;3.50;;
35576;SDS011;21680;52.400;16.920;2023-06-22T07:29:36;14.80;;;3.60;;
35576;SDS011;21680;52.400;16.920;2023-06-22T07:32:01;6.00;;;3.20;;
35576;SDS011;21680;52.400;16.920;2023-06-22T07:34:29;12.40;;;3.80;;
35576;SDS011;21680;52.400;16.920;2023-06-22T07:36:55;9.80;;;3.20;;
35576;SDS011;21680;52.400;16.920;2023-06-22T07:39:20;9.00;;;3.60;;
35576;SDS011;21680;52.400;16.920;2023-06-22T07:41:50;5.70;;;3.00;;
35576;SDS011;21680;52.400;16.920;2023-06-22T07:44:16;17.40;;;3.80;;
35576;SDS011;21680;52.400;16.920;2023-06-22T07:46:41;7.00;;;3.20;;
35576;SDS011;21680;52.400;16.920;2023-06-22T07:49:07;9.80;;;3.60;;
35576;SDS011;21680;52.400;16.920;2023-06-22T07:51:33;5.10;;;2.80;;
35576;SDS011;21680;52.400;16.920;2023-06-22T07:53:58;7.00;;;3.00;;
35576;SDS011;21680;52.400;16.920;2023-06-22T07:56:24;8.80;;;3.20;;
35576;SDS011;21680;52.400;16.920;2023-06-22T07:58:49;10.70;;;3.20;;
35576;SDS011;21680;52.400;16.920;2023-06-22T08:01:14;8.10;;;3.10;;
35576;SDS011;21680;52.400;16.920;2023-06-22T08:03:40;4.40;;;3.30;;
35576;SDS011;21680;52.400;16.920;2023-06-22T08:06:06;6.10;;;3.40;;
35576;SDS011;21680;52.400;16.920;2023-06-22T08:08:34;8.00;;;3.40;;
35576;SDS011;21680;52.400;16.920;2023-06-22T08:11:00;5.10;;;3.20;;
35576;SDS011;21680;52.400;16.920;2023-06-22T08:13:25;8.40;;;3.40;;
35576;SDS011;21680;52.400;16.920;2023-06-22T08:15:50;8.20;;;3.20;;
35576;SDS011;21680;52.400;16.920;2023-06-22T08:18:16;7.80;;;3.60;;
35576;SDS011;21680;52.400;16.920;2023-06-22T08:20:41;7.70;;;3.60;;
35576;SDS011;21680;52.400;16.920;2023-06-22T08:23:07;11.50;;;3.30;;
35576;SDS011;21680;52.400;16.920;2023-06-22T08:25:32;10.70;;;3.70;;
35576;SDS011;21680;52.400;16.920;2023-06-22T08:27:59;6.70;;;3.30;;
35576;SDS011;21680;52.400;16.920;2023-06-22T08:30:25;5.40;;;3.40;;
35576;SDS011;21680;52.400;16.920;2023-06-22T08:32:50;10.10;;;3.40;;
35576;SDS011;21680;52.400;16.920;2023-06-22T08:35:16;8.30;;;3.40;;
35576;SDS011;21680;52.400;16.920;2023-06-22T08:37:41;5.30;;;2.90;;
35576;SDS011;21680;52.400;16.920;2023-06-22T08:40:08;5.20;;;3.30;;
35576;SDS011;21680;52.400;16.920;2023-06-22T08:42:35;4.30;;;2.60;;
35576;SDS011;21680;52.400;16.920;2023-06-22T08:45:05;4.60;;;3.10;;
35576;SDS011;21680;52.400;16.920;2023-06-22T08:47:31;11.30;;;3.60;;
35576;SDS011;21680;52.400;16.920;2023-06-22T08:49:57;6.40;;;2.90;;
35576;SDS011;21680;52.400;16.920;2023-06-22T08:52:22;8.50;;;2.80;;
35576;SDS011;21680;52.400;16.920;2023-06-22T08:54:48;4.90;;;2.50;;
35576;SDS011;21680;52.400;16.920;2023-06-22T08:57:14;6.80;;;2.50;;
35576;SDS011;21680;52.400;16.920;2023-06-22T08:59:40;6.10;;;2.50;;
35576;SDS011;21680;52.400;16.920;2023-06-22T09:02:06;4.10;;;2.60;;
35576;SDS011;21680;52.400;16.920;2023-06-22T09:04:32;2.90;;;2.20;;
35576;SDS011;21680;52.400;16.920;2023-06-22T09:07:00;4.90;;;2.60;;
35576;SDS011;21680;52.400;16.920;2023-06-22T09:09:25;3.80;;;2.70;;
35576;SDS011;21680;52.400;16.920;2023-06-22T09:11:51;3.50;;;2.40;;
35576;SDS011;21680;52.400;16.920;2023-06-22T09:14:16;6.80;;;2.60;;
35576;SDS011;21680;52.400;16.920;2023-06-22T09:16:41;4.10;;;2.30;;
35576;SDS011;21680;52.400;16.920;2023-06-22T09:19:07;5.50;;;2.90;;
35576;SDS011;21680;52.400;16.920;2023-06-22T09:21:32;5.30;;;2.90;;
35576;SDS011;21680;52.400;16.920;2023-06-22T09:23:57;4.60;;;2.30;;
35576;SDS011;21680;52.400;16.920;2023-06-22T09:26:23;6.80;;;2.50;;
35576;SDS011;21680;52.400;16.920;2023-06-22T09:28:48;4.30;;;2.50;;
35576;SDS011;21680;52.400;16.920;2023-06-22T09:31:14;5.60;;;2.30;;
35576;SDS011;21680;52.400;16.920;2023-06-22T09:33:41;3.00;;;2.00;;
35576;SDS011;21680;52.400;16.920;2023-06-22T09:36:07;11.50;;;2.60;;
35576;SDS011;21680;52.400;16.920;2023-06-22T09:38:38;7.80;;;2.80;;
35576;SDS011;21680;52.400;16.920;2023-06-22T09:41:04;4.70;;;2.80;;
35576;SDS011;21680;52.400;16.920;2023-06-22T09:43:31;6.70;;;2.60;;
35576;SDS011;21680;52.400;16.920;2023-06-22T09:45:57;2.90;;;2.20;;
35576;SDS011;21680;52.400;16.920;2023-06-22T09:48:23;6.70;;;2.50;;
35576;SDS011;21680;52.400;16.920;2023-06-22T09:50:48;5.40;;;2.10;;
35576;SDS011;21680;52.400;16.920;2023-06-22T09:53:13;8.00;;;2.50;;
35576;SDS011;21680;52.400;16.920;2023-06-22T09:55:38;8.80;;;2.60;;
35576;SDS011;21680;52.400;16.920;2023-06-22T09:58:04;4.10;;;1.80;;
35576;SDS011;21680;52.400;16.920;2023-06-22T10:00:29;5.40;;;2.20;;
35576;SDS011;21680;52.400;16.920;2023-06-22T10:02:54;5.50;;;2.60;;
35576;SDS011;21680;52.400;16.920;2023-06-22T10:05:20;4.30;;;2.30;;
35576;SDS011;21680;52.400;16.920;2023-06-22T10:07:46;3.10;;;2.40;;
35576;SDS011;21680;52.400;16.920;2023-06-22T10:10:11;5.50;;;2.20;;
35576;SDS011;21680;52.400;16.920;2023-06-22T10:12:55;5.00;;;2.40;;
35576;SDS011;21680;52.400;16.920;2023-06-22T10:15:22;2.80;;;2.20;;
35576;SDS011;21680;52.400;16.920;2023-06-22T10:17:48;7.60;;;2.30;;
35576;SDS011;21680;52.400;16.920;2023-06-22T10:20:14;7.30;;;2.90;;
35576;SDS011;21680;52.400;16.920;2023-06-22T10:22:43;4.90;;;2.40;;
35576;SDS011;21680;52.400;16.920;2023-06-22T10:25:10;5.60;;;2.60;;
35576;SDS011;21680;52.400;16.920;2023-06-22T10:27:37;3.00;;;2.20;;
35576;SDS011;21680;52.400;16.920;2023-06-22T10:30:05;6.00;;;2.30;;
35576;SDS011;21680;52.400;16.920;2023-06-22T10:32:35;5.70;;;2.50;;
35576;SDS011;21680;52.400;16.920;2023-06-22T10:35:02;4.10;;;2.10;;
35576;SDS011;21680;52.400;16.920;2023-06-22T10:37:27;4.70;;;2.30;;
35576;SDS011;21680;52.400;16.920;2023-06-22T10:39:52;6.40;;;2.60;;
35576;SDS011;21680;52.400;16.920;2023-06-22T10:42:18;4.60;;;2.80;;
35576;SDS011;21680;52.400;16.920;2023-06-22T10:44:43;3.90;;;2.10;;
35576;SDS011;21680;52.400;16.920;2023-06-22T10:47:09;8.80;;;2.40;;
35576;SDS011;21680;52.400;16.920;2023-06-22T10:49:36;3.70;;;2.40;;
35576;SDS011;21680;52.400;16.920;2023-06-22T10:52:02;5.00;;;2.40;;
35576;SDS011;21680;52.400;16.920;2023-06-22T10:54:27;14.20;;;2.70;;
35576;SDS011;21680;52.400;16.920;2023-06-22T10:56:54;8.50;;;2.60;;
35576;SDS011;21680;52.400;16.920;2023-06-22T10:59:19;6.80;;;2.70;;
35576;SDS011;21680;52.400;16.920;2023-06-22T11:01:46;4.70;;;2.40;;
35576;SDS011;21680;52.400;16.920;2023-06-22T11:04:12;4.40;;;2.90;;
35576;SDS011;21680;52.400;16.920;2023-06-22T11:06:37;5.60;;;3.10;;
35576;SDS011;21680;52.400;16.920;2023-06-22T11:09:02;3.40;;;2.50;;
35576;SDS011;21680;52.400;16.920;2023-06-22T11:11:28;5.10;;;3.80;;
35576;SDS011;21680;52.400;16.920;2023-06-22T11:13:54;6.30;;;3.00;;
35576;SDS011;21680;52.400;16.920;2023-06-22T11:16:19;5.10;;;2.60;;
35576;SDS011;21680;52.400;16.920;2023-06-22T11:18:44;6.20;;;2.30;;
35576;SDS011;21680;52.400;16.920;2023-06-22T11:21:09;3.80;;;2.70;;
35576;SDS011;21680;52.400;16.920;2023-06-22T11:23:35;2.00;;;1.90;;
35576;SDS011;21680;52.400;16.920;2023-06-22T11:26:00;3.10;;;2.50;;
35576;SDS011;21680;52.400;16.920;2023-06-22T11:28:25;4.90;;;2.80;;
35576;SDS011;21680;52.400;16.920;2023-06-22T11:30:51;9.80;;;3.00;;
35576;SDS011;21680;52.400;16.920;2023-06-22T11:33:16;4.00;;;2.50;;
35576;SDS011;21680;52.400;16.920;2023-06-22T11:35:42;7.80;;;2.50;;
35576;SDS011;21680;52.400;16.920;2023-06-22T11:38:07;19.10;;;3.00;;
35576;SDS011;21680;52.400;16.920;2023-06-22T11:40:32;10.60;;;3.30;;
35576;SDS011;21680;52.400;16.920;2023-06-22T11:42:58;4.30;;;2.80;;
35576;SDS011;21680;52.400;16.920;2023-06-22T11:45:23;6.80;;;2.40;;
35576;SDS011;21680;52.400;16.920;2023-06-22T11:47:48;4.80;;;2.90;;
35576;SDS011;21680;52.400;16.920;2023-06-22T11:50:13;3.30;;;2.70;;
35576;SDS011;21680;52.400;16.920;2023-06-22T11:52:39;3.50;;;2.60;;
35576;SDS011;21680;52.400;16.920;2023-06-22T11:55:05;6.80;;;2.90;;
35576;SDS011;21680;52.400;16.920;2023-06-22T11:57:38;3.60;;;2.50;;
35576;SDS011;21680;52.400;16.920;2023-06-22T12:00:04;3.50;;;2.80;;
35576;SDS011;21680;52.400;16.920;2023-06-22T12:02:41;6.50;;;2.60;;
35576;SDS011;21680;52.400;16.920;2023-06-22T12:05:06;3.80;;;2.60;;
35576;SDS011;21680;52.400;16.920;2023-06-22T12:07:33;4.30;;;2.50;;
35576;SDS011;21680;52.400;16.920;2023-06-22T12:09:58;5.00;;;3.00;;
35576;SDS011;21680;52.400;16.920;2023-06-22T12:12:24;11.80;;;2.90;;
35576;SDS011;21680;52.400;16.920;2023-06-22T12:14:49;4.70;;;2.90;;
35576;SDS011;21680;52.400;16.920;2023-06-22T12:17:14;4.10;;;3.00;;
35576;SDS011;21680;52.400;16.920;2023-06-22T12:19:39;5.30;;;2.50;;
35576;SDS011;21680;52.400;16.920;2023-06-22T12:22:05;4.00;;;2.90;;
35576;SDS011;21680;52.400;16.920;2023-06-22T12:24:30;2.70;;;2.50;;
35576;SDS011;21680;52.400;16.920;2023-06-22T12:26:55;5.30;;;2.70;;
35576;SDS011;21680;52.400;16.920;2023-06-22T12:29:20;3.70;;;2.80;;
35576;SDS011;21680;52.400;16.920;2023-06-22T12:31:46;3.90;;;3.00;;
35576;SDS011;21680;52.400;16.920;2023-06-22T12:34:11;9.30;;;3.70;;
35576;SDS011;21680;52.400;16.920;2023-06-22T12:36:36;7.20;;;3.10;;
35576;SDS011;21680;52.400;16.920;2023-06-22T12:39:01;6.40;;;3.00;;
35576;SDS011;21680;52.400;16.920;2023-06-22T12:41:26;4.90;;;2.90;;
35576;SDS011;21680;52.400;16.920;2023-06-22T12:43:52;6.00;;;3.20;;
35576;SDS011;21680;52.400;16.920;2023-06-22T12:46:17;4.50;;;2.80;;
35576;SDS011;21680;52.400;16.920;2023-06-22T12:48:42;4.50;;;3.70;;
35576;SDS011;21680;52.400;16.920;2023-06-22T12:51:08;2.90;;;2.50;;
35576;SDS011;21680;52.400;16.920;2023-06-22T12:53:34;2.80;;;2.60;;
35576;SDS011;21680;52.400;16.920;2023-06-22T12:56:00;3.60;;;2.60;;
35576;SDS011;21680;52.400;16.920;2023-06-22T12:58:25;4.40;;;3.10;;
35576;SDS011;21680;52.400;16.920;2023-06-22T13:00:51;4.50;;;3.30;;
35576;SDS011;21680;52.400;16.920;2023-06-22T13:03:16;3.50;;;2.70;;
35576;SDS011;21680;52.400;16.920;2023-06-22T13:05:41;4.00;;;3.00;;
35576;SDS011;21680;52.400;16.920;2023-06-22T13:08:06;4.60;;;3.10;;
35576;SDS011;21680;52.400;16.920;2023-06-22T13:10:33;5.40;;;3.00;;
35576;SDS011;21680;52.400;16.920;2023-06-22T13:12:58;6.90;;;2.80;;
35576;SDS011;21680;52.400;16.920;2023-06-22T13:15:26;4.60;;;2.80;;
35576;SDS011;21680;52.400;16.920;2023-06-22T13:17:53;4.10;;;2.80;;
35576;SDS011;21680;52.400;16.920;2023-06-22T13:20:18;3.20;;;2.90;;
35576;SDS011;21680;52.400;16.920;2023-06-22T13:22:44;4.40;;;3.00;;
35576;SDS011;21680;52.400;16.920;2023-06-22T13:25:09;5.90;;;3.10;;
35576;SDS011;21680;52.400;16.920;2023-06-22T13:27:37;3.40;;;2.90;;
35576;SDS011;21680;52.400;16.920;2023-06-22T13:30:04;4.80;;;2.90;;
35576;SDS011;21680;52.400;16.920;2023-06-22T13:32:30;3.40;;;2.90;;
35576;SDS011;21680;52.400;16.920;2023-06-22T13:34:55;3.80;;;3.10;;
35576;SDS011;21680;52.400;16.920;2023-06-22T13:37:20;4.90;;;2.80;;
35576;SDS011;21680;52.400;16.920;2023-06-22T13:39:45;5.90;;;3.00;;
35576;SDS011;21680;52.400;16.920;2023-06-22T13:42:10;3.20;;;2.90;;
35576;SDS011;21680;52.400;16.920;2023-06-22T13:44:36;6.20;;;3.00;;
35576;SDS011;21680;52.400;16.920;2023-06-22T13:47:01;5.70;;;3.10;;
35576;SDS011;21680;52.400;16.920;2023-06-22T13:49:26;4.40;;;3.20;;
35576;SDS011;21680;52.400;16.920;2023-06-22T13:51:52;5.40;;;2.70;;
35576;SDS011;21680;52.400;16.920;2023-06-22T13:54:17;5.70;;;2.90;;
35576;SDS011;21680;52.400;16.920;2023-06-22T13:56:42;5.70;;;3.80;;
35576;SDS011;21680;52.400;16.920;2023-06-22T13:59:07;5.20;;;3.00;;
35576;SDS011;21680;52.400;16.920;2023-06-22T14:01:34;4.80;;;3.20;;
35576;SDS011;21680;52.400;16.920;2023-06-22T14:04:05;3.20;;;2.90;;
35576;SDS011;21680;52.400;16.920;2023-06-22T14:06:30;4.90;;;2.70;;
35576;SDS011;21680;52.400;16.920;2023-06-22T14:08:55;3.20;;;2.50;;
35576;SDS011;21680;52.400;16.920;2023-06-22T14:11:21;3.10;;;2.70;;
35576;SDS011;21680;52.400;16.920;2023-06-22T14:13:46;5.30;;;2.80;;
35576;SDS011;21680;52.400;16.920;2023-06-22T14:16:11;13.50;;;4.20;;
35576;SDS011;21680;52.400;16.920;2023-06-22T14:18:37;7.40;;;3.20;;
35576;SDS011;21680;52.400;16.920;2023-06-22T14:21:02;3.30;;;3.00;;
35576;SDS011;21680;52.400;16.920;2023-06-22T14:23:27;5.70;;;2.60;;
35576;SDS011;21680;52.400;16.920;2023-06-22T14:25:52;4.00;;;3.00;;
35576;SDS011;21680;52.400;16.920;2023-06-22T14:28:18;4.00;;;3.20;;
35576;SDS011;21680;52.400;16.920;2023-06-22T14:30:43;3.20;;;2.90;;